createdAt,value
2023-01-01T00:02:07.970Z,334.77
2023-01-01T00:04:34.980Z,300.83
2023-01-01T00:07:01.950Z,317.42
2023-01-01T00:09:47.397Z,322.90
2023-01-01T00:12:14.347Z,320.90
2023-01-01T00:14:43.949Z,347.17
2023-01-01T00:17:11.288Z,330.92
2023-01-01T00:19:38.688Z,313.48
2023-01-01T00:22:27.782Z,327.70
2023-01-01T00:24:52.598Z,278.48
2023-01-01T00:27:19.642Z,243.82
2023-01-01T00:29:47.021Z,257.05
2023-01-01T00:32:17.688Z,247.20
2023-01-01T00:34:49.289Z,220.50
2023-01-01T00:37:18.335Z,186.38
2023-01-01T00:39:45.477Z,189.65
2023-01-01T00:42:12.508Z,186.55
2023-01-01T00:44:39.425Z,154.25
2023-01-01T00:47:06.420Z,171.23
2023-01-01T00:49:33.407Z,173.88
2023-01-01T00:52:00.356Z,173.00
2023-01-01T00:54:27.287Z,142.52
2023-01-01T00:56:54.237Z,161.02
2023-01-01T00:59:26.816Z,145.32
2023-01-01T01:01:55.686Z,150.27
2023-01-01T01:04:22.815Z,140.20
2023-01-01T01:06:49.761Z,131.75
2023-01-01T01:09:16.686Z,144.95
2023-01-01T01:11:43.624Z,142.57
2023-01-01T01:14:10.574Z,116.95
2023-01-01T01:16:37.589Z,110.03
2023-01-01T01:19:05.092Z,105.35
2023-01-01T01:21:33.126Z,105.50
2023-01-01T01:24:00.882Z,106.72
2023-01-01T01:26:32.109Z,95.95
2023-01-01T01:28:59.403Z,111.90
2023-01-01T01:31:28.432Z,94.95
2023-01-01T01:33:55.340Z,103.60
2023-01-01T01:36:22.339Z,110.60
2023-01-01T01:38:49.504Z,103.22
2023-01-01T01:41:27.391Z,103.35
2023-01-01T01:44:00.685Z,99.32
2023-01-01T01:46:36.573Z,93.90
2023-01-01T01:49:17.870Z,109.53
2023-01-01T01:51:44.889Z,103.10
2023-01-01T01:54:14.556Z,96.82
2023-01-01T01:56:54.062Z,99.18
2023-01-01T01:59:21.108Z,99.38
2023-01-01T02:01:48.401Z,85.32
2023-01-01T02:04:15.437Z,76.93
2023-01-01T02:06:42.445Z,79.63
2023-01-01T02:09:09.462Z,78.03
2023-01-01T02:11:36.517Z,74.95
2023-01-01T02:14:03.594Z,82.30
2023-01-01T02:17:23.137Z,69.82
2023-01-01T02:20:02.065Z,79.40
2023-01-01T02:23:10.866Z,69.80
2023-01-01T02:25:51.820Z,84.55
2023-01-01T02:28:43.446Z,92.38
2023-01-01T02:31:11.893Z,82.00
2023-01-01T02:33:39.355Z,83.50
2023-01-01T02:36:06.507Z,75.47
2023-01-01T02:38:35.468Z,76.68
2023-01-01T02:41:04.349Z,60.05
2023-01-01T02:43:31.302Z,69.72
2023-01-01T02:45:58.287Z,66.68
2023-01-01T02:48:37.349Z,77.25
2023-01-01T02:51:09.478Z,71.38
2023-01-01T02:53:37.453Z,72.95
2023-01-01T02:56:36.359Z,65.68
2023-01-01T02:59:38.519Z,68.15
2023-01-01T03:02:11.599Z,63.88
2023-01-01T03:04:57.625Z,55.67
2023-01-01T03:07:33.260Z,56.40
2023-01-01T03:10:45.238Z,54.58
2023-01-01T03:13:33.441Z,50.22
2023-01-01T03:16:09.459Z,51.83
2023-01-01T03:18:44.657Z,48.63
2023-01-01T03:23:50.141Z,54.00
2023-01-01T03:26:17.261Z,60.05
2023-01-01T03:28:46.732Z,56.03
2023-01-01T03:31:15.277Z,59.40
2023-01-01T03:33:45.107Z,53.88
2023-01-01T03:36:20.581Z,59.40
2023-01-01T03:38:58.836Z,57.55
2023-01-01T03:41:28.725Z,55.35
2023-01-01T03:44:09.498Z,54.97
2023-01-01T03:46:36.617Z,60.65
2023-01-01T03:49:05.939Z,65.53
2023-01-01T03:51:44.753Z,66.68
2023-01-01T03:54:18.487Z,59.50
2023-01-01T03:56:47.092Z,59.83
2023-01-01T03:59:22.422Z,61.67
2023-01-01T04:01:53.851Z,59.95
2023-01-01T04:04:20.880Z,60.83
2023-01-01T04:06:47.847Z,59.83
2023-01-01T04:09:18.994Z,57.08
2023-01-01T04:14:39.452Z,52.83
2023-01-01T04:17:07.339Z,52.08
2023-01-01T04:19:34.279Z,51.08
2023-01-01T04:22:01.639Z,55.05
2023-01-01T04:24:29.007Z,47.58
2023-01-01T04:26:56.091Z,43.47
2023-01-01T04:29:23.134Z,42.53
2023-01-01T04:31:50.189Z,50.80
2023-01-01T04:34:17.223Z,48.58
2023-01-01T04:36:44.152Z,47.47
2023-01-01T04:39:11.109Z,50.58
2023-01-01T04:41:38.063Z,50.20
2023-01-01T04:44:05.305Z,53.40
2023-01-01T04:46:32.250Z,47.25
2023-01-01T04:48:59.266Z,48.38
2023-01-01T04:51:26.236Z,51.13
2023-01-01T04:53:53.221Z,58.75
2023-01-01T04:56:21.226Z,46.35
2023-01-01T04:58:48.312Z,58.03
2023-01-01T05:01:24.572Z,56.88
2023-01-01T05:03:51.728Z,53.72
2023-01-01T05:06:20.135Z,57.80
2023-01-01T05:08:48.124Z,57.38
2023-01-01T05:11:19.216Z,58.55
2023-01-01T05:13:47.674Z,57.08
2023-01-01T05:16:16.133Z,59.42
2023-01-01T05:18:43.323Z,54.63
2023-01-01T05:21:15.059Z,48.35
2023-01-01T05:23:42.203Z,48.00
2023-01-01T05:26:16.151Z,45.75
2023-01-01T05:28:43.052Z,47.63
2023-01-01T05:31:12.972Z,47.60
2023-01-01T05:33:40.083Z,42.63
2023-01-01T05:36:12.472Z,52.70
2023-01-01T05:38:39.539Z,45.50
2023-01-01T05:41:09.785Z,47.40
2023-01-01T05:43:36.879Z,46.20
2023-01-01T05:46:08.540Z,38.28
2023-01-01T05:48:38.878Z,40.08
2023-01-01T05:51:06.987Z,48.80
2023-01-01T05:53:34.026Z,44.08
2023-01-01T05:56:01.170Z,48.63
2023-01-01T05:58:28.613Z,52.83
2023-01-01T06:00:55.635Z,49.95
2023-01-01T06:03:22.655Z,52.80
2023-01-01T06:05:49.549Z,42.42
2023-01-01T06:08:16.470Z,44.45
2023-01-01T06:10:43.409Z,45.35
2023-01-01T06:13:13.455Z,42.28
2023-01-01T06:15:40.606Z,52.33
2023-01-01T06:18:07.796Z,58.00
2023-01-01T06:20:34.696Z,56.65
2023-01-01T06:23:01.631Z,57.47
2023-01-01T06:25:28.526Z,58.35
2023-01-01T06:27:55.511Z,53.58
2023-01-01T06:30:22.471Z,43.50
2023-01-01T06:32:49.393Z,50.63
2023-01-01T06:35:16.441Z,50.30
2023-01-01T06:37:43.350Z,51.53
2023-01-01T06:40:10.608Z,48.67
2023-01-01T06:42:38.375Z,52.80
2023-01-01T06:45:05.646Z,48.08
2023-01-01T06:47:35.627Z,45.67
2023-01-01T06:50:04.079Z,52.10
2023-01-01T06:52:31.023Z,51.03
2023-01-01T06:54:58.000Z,40.47
2023-01-01T06:57:25.130Z,50.97
2023-01-01T06:59:52.110Z,43.88
2023-01-01T07:02:19.259Z,49.30
2023-01-01T07:04:46.389Z,52.80
2023-01-01T07:07:13.301Z,56.63
2023-01-01T07:09:40.259Z,49.70
2023-01-01T07:12:07.431Z,50.58
2023-01-01T07:14:34.383Z,52.63
2023-01-01T07:17:01.316Z,47.30
2023-01-01T07:19:28.364Z,49.78
2023-01-01T07:21:55.500Z,56.47
2023-01-01T07:24:22.560Z,57.28
2023-01-01T07:26:50.156Z,50.17
2023-01-01T07:29:17.325Z,57.30
2023-01-01T07:31:44.432Z,53.03
2023-01-01T07:34:13.872Z,53.10
2023-01-01T07:36:42.476Z,49.10
2023-01-01T07:39:09.797Z,53.47
2023-01-01T07:41:36.871Z,50.60
2023-01-01T07:44:04.076Z,46.08
2023-01-01T07:46:31.082Z,47.38
2023-01-01T07:48:58.516Z,43.28
2023-01-01T07:51:25.687Z,50.90
2023-01-01T07:53:52.754Z,44.10
2023-01-01T07:56:19.677Z,43.92
2023-01-01T07:58:46.791Z,48.35
2023-01-01T08:01:14.879Z,42.50
2023-01-01T08:03:42.888Z,51.58
2023-01-01T08:06:10.933Z,42.88
2023-01-01T08:08:38.218Z,47.85
2023-01-01T08:11:05.492Z,41.05
2023-01-01T08:13:32.453Z,46.40
2023-01-01T08:15:59.447Z,46.90
2023-01-01T08:18:26.537Z,37.17
2023-01-01T08:20:54.352Z,36.50
2023-01-01T08:23:21.423Z,45.83
2023-01-01T08:25:48.371Z,51.00
2023-01-01T08:28:15.283Z,46.25
2023-01-01T08:30:42.325Z,42.92
2023-01-01T08:33:09.229Z,42.95
2023-01-01T08:35:36.561Z,42.15
2023-01-01T08:38:03.498Z,43.92
2023-01-01T08:40:30.522Z,47.35
2023-01-01T08:42:57.586Z,46.90
2023-01-01T08:45:24.781Z,49.38
2023-01-01T08:47:51.710Z,47.75
2023-01-01T08:50:18.735Z,49.35
2023-01-01T08:52:45.714Z,53.28
2023-01-01T08:55:12.673Z,55.95
2023-01-01T08:57:39.578Z,49.25
2023-01-01T09:00:09.773Z,48.20
2023-01-01T09:02:36.914Z,63.63
2023-01-01T09:05:04.147Z,51.38
2023-01-01T09:07:31.150Z,60.50
2023-01-01T09:09:58.253Z,51.65
2023-01-01T09:12:25.138Z,53.13
2023-01-01T09:14:52.109Z,47.00
2023-01-01T09:17:19.079Z,51.47
2023-01-01T09:19:46.173Z,51.60
2023-01-01T09:22:13.281Z,50.50
2023-01-01T09:24:40.312Z,45.03
2023-01-01T09:27:07.245Z,42.00
2023-01-01T09:29:34.252Z,41.17
2023-01-01T09:32:01.350Z,36.65
2023-01-01T09:34:28.387Z,26.33
2023-01-01T09:36:55.334Z,25.10
2023-01-01T09:39:22.571Z,20.15
2023-01-01T09:41:54.456Z,16.08
2023-01-01T09:45:02.191Z,13.50
2023-01-01T09:47:43.030Z,13.73
2023-01-01T09:50:14.338Z,13.93
2023-01-01T09:52:58.345Z,11.85
2023-01-01T09:55:26.432Z,13.13
2023-01-01T09:57:54.511Z,11.20
2023-01-01T10:00:21.597Z,11.55
2023-01-01T10:02:53.457Z,11.98
2023-01-01T10:05:29.983Z,12.07
2023-01-01T10:08:10.718Z,10.10
2023-01-01T10:11:08.573Z,10.50
2023-01-01T10:13:42.942Z,8.88
2023-01-01T10:16:13.351Z,11.57
2023-01-01T10:18:40.969Z,10.48
2023-01-01T10:21:13.726Z,10.43
2023-01-01T10:23:43.805Z,9.73
2023-01-01T10:26:17.359Z,11.27
2023-01-01T10:29:05.082Z,9.70
2023-01-01T10:31:51.012Z,8.70
2023-01-01T10:34:26.176Z,9.55
2023-01-01T10:36:57.013Z,10.00
2023-01-01T10:39:24.105Z,11.75
2023-01-01T10:41:51.037Z,12.50
2023-01-01T10:44:34.258Z,11.68
2023-01-01T10:47:25.905Z,11.70
2023-01-01T10:50:05.268Z,10.63
2023-01-01T10:52:37.476Z,10.93
2023-01-01T10:55:05.269Z,11.98
2023-01-01T10:57:32.474Z,11.52
2023-01-01T11:00:22.609Z,11.75
2023-01-01T11:03:14.072Z,11.00
2023-01-01T11:05:41.008Z,12.65
2023-01-01T11:08:19.011Z,10.70
2023-01-01T11:10:50.756Z,10.77
2023-01-01T11:13:19.303Z,11.18
2023-01-01T11:15:46.188Z,8.75
2023-01-01T11:18:23.662Z,8.82
2023-01-01T11:20:57.567Z,11.65
2023-01-01T11:23:31.739Z,13.50
2023-01-01T11:26:04.869Z,11.60
2023-01-01T11:28:34.477Z,10.60
2023-01-01T11:31:21.343Z,11.05
2023-01-01T11:33:50.387Z,9.60
2023-01-01T11:36:30.493Z,10.18
2023-01-01T11:39:27.096Z,8.95
2023-01-01T11:41:55.844Z,11.40
2023-01-01T11:44:46.844Z,10.38
2023-01-01T11:47:29.929Z,8.65
2023-01-01T11:50:11.835Z,8.52
2023-01-01T11:52:40.612Z,8.68
2023-01-01T11:55:27.563Z,8.32
2023-01-01T11:57:59.799Z,8.38
2023-01-01T12:00:26.822Z,8.60
2023-01-01T12:03:00.893Z,9.18
2023-01-01T12:05:41.311Z,9.05
2023-01-01T12:08:09.409Z,8.30
2023-01-01T12:10:57.744Z,9.60
2023-01-01T12:13:30.284Z,9.40
2023-01-01T12:16:09.582Z,9.27
2023-01-01T12:18:51.238Z,8.15
2023-01-01T12:21:25.219Z,8.88
2023-01-01T12:23:52.189Z,8.55
2023-01-01T12:26:22.144Z,8.50
2023-01-01T12:29:04.341Z,7.10
2023-01-01T12:31:52.864Z,9.43
2023-01-01T12:34:41.733Z,10.52
2023-01-01T12:37:11.230Z,7.53
2023-01-01T12:40:00.203Z,7.68
2023-01-01T12:42:33.298Z,8.75
2023-01-01T12:45:06.005Z,8.82
2023-01-01T12:47:35.695Z,9.23
2023-01-01T12:50:04.638Z,9.80
2023-01-01T12:53:06.433Z,8.10
2023-01-01T12:55:47.109Z,10.95
2023-01-01T12:58:37.253Z,7.90
2023-01-01T13:01:22.976Z,8.80
2023-01-01T13:03:59.326Z,7.93
2023-01-01T13:06:34.321Z,7.43
2023-01-01T13:09:08.297Z,7.70
2023-01-01T13:11:39.772Z,8.98
2023-01-01T13:14:10.047Z,7.43
2023-01-01T13:16:45.824Z,7.00
2023-01-01T13:19:45.468Z,9.00
2023-01-01T13:22:27.456Z,8.13
2023-01-01T13:25:09.317Z,9.48
2023-01-01T13:28:02.791Z,8.65
2023-01-01T13:30:35.532Z,10.95
2023-01-01T13:33:32.122Z,7.95
2023-01-01T13:36:14.285Z,9.30
2023-01-01T13:38:54.438Z,9.43
2023-01-01T13:41:35.779Z,6.82
2023-01-01T13:44:05.553Z,10.32
2023-01-01T13:46:41.893Z,11.05
2023-01-01T13:49:27.331Z,9.38
2023-01-01T13:52:07.021Z,7.63
2023-01-01T13:54:56.886Z,10.45
2023-01-01T13:57:39.312Z,8.82
2023-01-01T14:00:22.931Z,10.00
2023-01-01T14:03:00.635Z,9.68
2023-01-01T14:05:38.656Z,10.35
2023-01-01T14:08:11.482Z,7.07
2023-01-01T14:10:40.188Z,6.80
2023-01-01T14:13:07.466Z,9.63
2023-01-01T14:15:34.871Z,8.52
2023-01-01T14:18:06.065Z,11.73
2023-01-01T14:20:53.185Z,10.00
2023-01-01T14:23:33.587Z,11.40
2023-01-01T14:26:00.982Z,9.57
2023-01-01T14:28:29.623Z,9.02
2023-01-01T14:30:56.563Z,8.32
2023-01-01T14:33:30.382Z,9.18
2023-01-01T14:35:58.777Z,10.70
2023-01-01T14:38:30.679Z,8.90
2023-01-01T14:41:07.086Z,10.90
2023-01-01T14:43:38.894Z,11.68
2023-01-01T14:46:11.104Z,9.07
2023-01-01T14:48:38.394Z,9.98
2023-01-01T14:51:05.422Z,11.77
2023-01-01T14:53:33.317Z,10.63
2023-01-01T14:56:00.352Z,9.20
2023-01-01T14:58:28.121Z,8.85
2023-01-01T15:00:56.673Z,10.52
2023-01-01T15:03:24.295Z,9.85
2023-01-01T15:06:03.303Z,9.27
2023-01-01T15:08:30.277Z,10.57
2023-01-01T15:10:57.195Z,11.23
2023-01-01T15:13:27.751Z,8.85
2023-01-01T15:15:56.174Z,11.45
2023-01-01T15:18:50.567Z,9.30
2023-01-01T15:21:41.293Z,8.25
2023-01-01T15:24:16.127Z,11.30
2023-01-01T15:26:45.337Z,8.25
2023-01-01T15:29:16.740Z,8.52
2023-01-01T15:31:46.570Z,9.88
2023-01-01T15:34:27.847Z,10.18
2023-01-01T15:36:55.591Z,8.35
2023-01-01T15:39:22.619Z,10.48
2023-01-01T15:41:50.899Z,9.18
2023-01-01T15:44:35.309Z,10.70
2023-01-01T15:47:26.336Z,11.30
2023-01-01T15:50:17.797Z,12.35
2023-01-01T15:52:45.705Z,15.20
2023-01-01T15:55:15.894Z,12.55
2023-01-01T15:57:49.280Z,13.63
2023-01-01T16:00:19.679Z,11.38
2023-01-01T16:02:47.018Z,13.70
2023-01-01T16:05:17.430Z,7.45
2023-01-01T16:07:44.472Z,10.43
2023-01-01T16:10:16.142Z,9.18
2023-01-01T16:12:43.163Z,10.07
2023-01-01T16:15:15.082Z,9.10
2023-01-01T16:17:43.159Z,10.45
2023-01-01T16:20:14.258Z,10.45
2023-01-01T16:22:41.237Z,9.88
2023-01-01T16:25:15.133Z,10.55
2023-01-01T16:27:42.695Z,12.40
2023-01-01T16:30:10.414Z,13.07
2023-01-01T16:32:37.512Z,11.90
2023-01-01T16:35:11.547Z,12.02
2023-01-01T16:37:40.189Z,12.48
2023-01-01T16:40:08.332Z,10.60
2023-01-01T16:42:35.305Z,10.18
2023-01-01T16:45:02.318Z,9.35
2023-01-01T16:47:30.052Z,6.80
2023-01-01T16:49:57.742Z,8.57
2023-01-01T16:52:28.719Z,6.25
2023-01-01T16:54:58.467Z,5.05
2023-01-01T16:57:25.524Z,5.88
2023-01-01T16:59:52.633Z,7.53
2023-01-01T17:02:20.095Z,6.57
2023-01-01T17:04:48.162Z,5.18
2023-01-01T17:07:15.305Z,20.98
2023-01-01T17:09:42.746Z,16.63
2023-01-01T17:12:09.825Z,15.95
2023-01-01T17:14:36.793Z,12.55
2023-01-01T17:17:03.714Z,13.85
2023-01-01T17:19:30.745Z,23.08
2023-01-01T17:21:57.746Z,21.40
2023-01-01T17:24:24.967Z,24.90
2023-01-01T17:26:53.058Z,25.13
2023-01-01T17:29:20.846Z,18.27
2023-01-01T17:31:47.887Z,21.13
2023-01-01T17:34:14.965Z,15.00
2023-01-01T17:36:42.644Z,18.65
